Terminal Aerodrome Forecast
Issued by NWS

Home | Current Version | Previous Version | Text Only | Print | Product List | Glossary On
Versions: 1 2 3 4 5 6 7 8 9 10 11 12 13 14 15
000
FTUS45 KGJT 191739
TAFCNY
TAF
KCNY 191739Z 1918/2018 14015G19KT P6SM OVC150
     FM192100 18018G31KT P6SM BKN150 BKN200
     FM200400 21013G21KT P6SM BKN130 BKN150
     FM200800 19009KT P6SM BKN100 BKN250
     FM201300 18008KT P6SM FEW060 SCT120=

USA.gov is the U.S. government's official web portal to all federal, state and local government web resources and services.